createdAt,value
2022-09-24T00:00:17.199Z,9.67
2022-09-24T00:02:45.613Z,9.62
2022-09-24T00:05:14.396Z,9.61
2022-09-24T00:07:45.547Z,9.54
2022-09-24T00:10:14.629Z,9.48
2022-09-24T00:12:44.089Z,9.52
2022-09-24T00:15:13.044Z,9.65
2022-09-24T00:17:43.720Z,9.51
2022-09-24T00:20:12.578Z,9.48
2022-09-24T00:22:43.443Z,9.55
2022-09-24T00:25:29.633Z,9.52
2022-09-24T00:27:59.840Z,9.41
2022-09-24T00:30:34.458Z,9.32
2022-09-24T00:33:03.128Z,9.33
2022-09-24T00:35:33.298Z,9.36
2022-09-24T00:38:03.503Z,9.41
2022-09-24T00:40:34.222Z,9.47
2022-09-24T00:43:03.283Z,9.48
2022-09-24T00:45:32.988Z,9.47
2022-09-24T00:48:01.580Z,9.47
2022-09-24T00:50:34.681Z,9.49
2022-09-24T00:53:09.840Z,9.47
2022-09-24T00:55:42.524Z,9.43
2022-09-24T00:58:11.710Z,9.33
2022-09-24T01:00:42.548Z,9.27
2022-09-24T01:03:15.815Z,9.24
2022-09-24T01:05:44.561Z,9.17
2022-09-24T01:08:17.910Z,9.10
2022-09-24T01:11:06.390Z,9.04
2022-09-24T01:14:05.173Z,9.03
2022-09-24T01:16:44.568Z,9.04
2022-09-24T01:19:35.803Z,9.00
2022-09-24T01:22:10.514Z,9.05
2022-09-24T01:24:57.853Z,9.07
2022-09-24T01:27:42.610Z,9.06
2022-09-24T01:30:15.366Z,9.08
2022-09-24T01:32:49.702Z,9.10
2022-09-24T01:35:22.452Z,9.03
2022-09-24T01:37:55.995Z,9.07
2022-09-24T01:40:28.492Z,9.11
2022-09-24T01:42:59.552Z,9.08
2022-09-24T01:45:32.266Z,9.13
2022-09-24T01:48:02.016Z,9.15
2022-09-24T01:50:35.039Z,9.25
2022-09-24T01:53:07.585Z,9.23
2022-09-24T01:55:40.637Z,9.22
2022-09-24T01:58:12.396Z,9.18
2022-09-24T02:00:49.053Z,9.21
2022-09-24T02:03:21.523Z,9.23
2022-09-24T02:05:53.239Z,9.21
2022-09-24T02:08:24.133Z,9.17
2022-09-24T02:10:58.416Z,9.25
2022-09-24T02:13:32.685Z,9.26
2022-09-24T02:16:07.933Z,9.27
2022-09-24T02:18:41.178Z,9.21
2022-09-24T02:21:12.425Z,9.20
2022-09-24T02:23:47.407Z,9.23
2022-09-24T02:26:16.690Z,9.28
2022-09-24T02:28:45.894Z,9.28
2022-09-24T02:31:20.267Z,9.23
2022-09-24T02:34:09.860Z,9.25
2022-09-24T02:36:41.130Z,9.27
2022-09-24T02:39:09.708Z,9.23
2022-09-24T02:41:39.060Z,9.24
2022-09-24T02:44:07.529Z,9.26
2022-09-24T02:46:39.384Z,9.25
2022-09-24T02:49:08.143Z,9.23
2022-09-24T02:51:36.870Z,9.23
2022-09-24T02:54:06.469Z,9.21
2022-09-24T02:56:36.509Z,9.23
2022-09-24T02:59:05.472Z,9.23
2022-09-24T03:01:34.465Z,9.21
2022-09-24T03:04:05.207Z,9.19
2022-09-24T03:06:34.437Z,9.16
2022-09-24T03:09:04.279Z,9.16
2022-09-24T03:11:33.328Z,9.18
2022-09-24T03:14:02.588Z,9.15
2022-09-24T03:16:31.491Z,9.11
2022-09-24T03:19:00.024Z,9.14
2022-09-24T03:21:30.530Z,9.16
2022-09-24T03:24:00.305Z,9.20
2022-09-24T03:26:29.101Z,9.16
2022-09-24T03:28:57.470Z,9.14
2022-09-24T03:31:25.133Z,9.13
2022-09-24T03:33:53.531Z,9.09
2022-09-24T03:36:24.803Z,9.08
2022-09-24T03:38:57.891Z,9.05
2022-09-24T03:41:27.862Z,9.03
2022-09-24T03:43:56.853Z,9.04
2022-09-24T03:46:30.802Z,9.02
2022-09-24T03:49:00.790Z,9.03
2022-09-24T03:51:29.359Z,8.98
2022-09-24T03:53:59.121Z,9.01
2022-09-24T03:56:28.859Z,9.00
2022-09-24T03:58:57.440Z,8.99
2022-09-24T04:01:25.921Z,9.00
2022-09-24T04:03:55.357Z,9.00
2022-09-24T04:06:26.388Z,8.99
2022-09-24T04:08:55.853Z,8.94
2022-09-24T04:11:26.578Z,8.90
2022-09-24T04:13:55.008Z,8.86
2022-09-24T04:16:23.477Z,8.77
2022-09-24T04:18:51.843Z,8.75
2022-09-24T04:21:20.392Z,8.71
2022-09-24T04:23:49.279Z,8.64
2022-09-24T04:26:17.941Z,8.59
2022-09-24T04:28:47.840Z,8.56
2022-09-24T04:31:16.707Z,8.56
2022-09-24T04:33:45.070Z,8.54
2022-09-24T04:36:14.996Z,8.49
2022-09-24T04:38:43.468Z,8.48
2022-09-24T04:41:12.759Z,8.46
2022-09-24T04:43:41.264Z,8.44
2022-09-24T04:46:11.420Z,8.38
2022-09-24T04:48:40.945Z,8.36
2022-09-24T04:51:10.953Z,8.36
2022-09-24T04:53:39.406Z,8.30
2022-09-24T04:56:12.330Z,8.24
2022-09-24T04:58:41.313Z,8.20
2022-09-24T05:01:13.667Z,8.19
2022-09-24T05:03:43.477Z,8.14
2022-09-24T05:06:11.907Z,8.14
2022-09-24T05:08:40.417Z,8.14
2022-09-24T05:11:09.444Z,8.09
2022-09-24T05:13:37.893Z,8.07
2022-09-24T05:16:07.067Z,8.07
2022-09-24T05:18:37.661Z,8.02
2022-09-24T05:21:06.996Z,7.99
2022-09-24T05:23:35.541Z,7.98
2022-09-24T05:26:21.737Z,8.00
2022-09-24T05:28:50.303Z,7.98
2022-09-24T05:31:18.862Z,8.00
2022-09-24T05:33:49.488Z,8.06
2022-09-24T05:36:19.398Z,8.07
2022-09-24T05:38:47.721Z,8.10
2022-09-24T05:41:16.541Z,8.08
2022-09-24T05:43:45.035Z,8.11
2022-09-24T05:46:13.632Z,8.15
2022-09-24T05:48:42.638Z,8.19
2022-09-24T05:51:12.703Z,8.24
2022-09-24T05:53:41.077Z,8.26
2022-09-24T05:56:10.537Z,8.34
2022-09-24T05:58:38.944Z,8.37
2022-09-24T06:01:07.676Z,8.38
2022-09-24T06:03:36.225Z,8.35
2022-09-24T06:06:05.037Z,8.37
2022-09-24T06:08:35.486Z,8.38
2022-09-24T06:11:06.751Z,8.41
2022-09-24T06:13:35.841Z,8.44
2022-09-24T06:16:05.510Z,8.44
2022-09-24T06:18:35.224Z,8.47
2022-09-24T06:21:05.160Z,8.46
2022-09-24T06:23:35.264Z,8.46
2022-09-24T06:26:04.710Z,8.48
2022-09-24T06:28:32.924Z,8.48
2022-09-24T06:31:03.418Z,8.55
2022-09-24T06:33:33.192Z,8.54
2022-09-24T06:36:05.199Z,8.60
2022-09-24T06:38:35.868Z,8.64
2022-09-24T06:41:06.588Z,8.67
2022-09-24T06:43:36.287Z,8.71
2022-09-24T06:46:06.340Z,8.76
2022-09-24T06:48:35.012Z,8.80
2022-09-24T06:51:05.869Z,8.86
2022-09-24T06:53:36.058Z,8.87
2022-09-24T06:56:06.448Z,8.83
2022-09-24T06:58:35.274Z,8.75
2022-09-24T07:01:05.018Z,8.73
2022-09-24T07:03:36.350Z,8.71
2022-09-24T07:06:06.905Z,8.73
2022-09-24T07:08:37.254Z,8.78
2022-09-24T07:11:05.752Z,8.84
2022-09-24T07:13:34.351Z,8.95
2022-09-24T07:16:03.197Z,9.07
2022-09-24T07:18:31.538Z,9.16
2022-09-24T07:21:01.257Z,9.27
2022-09-24T07:23:31.116Z,9.32
2022-09-24T07:26:01.423Z,9.35
2022-09-24T07:28:30.733Z,9.35
2022-09-24T07:31:00.777Z,9.40
2022-09-24T07:33:29.417Z,9.45
2022-09-24T07:35:57.929Z,9.48
2022-09-24T07:38:27.751Z,9.55
2022-09-24T07:41:00.595Z,9.59
2022-09-24T07:43:32.190Z,9.57
2022-09-24T07:46:00.768Z,9.67
2022-09-24T07:48:29.438Z,9.67
2022-09-24T07:50:57.773Z,9.74
2022-09-24T07:53:26.093Z,9.80
2022-09-24T07:55:56.553Z,9.89
2022-09-24T07:58:27.763Z,9.93
2022-09-24T08:00:59.475Z,10.06
2022-09-24T08:03:28.053Z,10.07
2022-09-24T08:06:00.165Z,10.10
2022-09-24T08:08:29.517Z,10.14
2022-09-24T08:10:58.463Z,10.27
2022-09-24T08:13:28.556Z,10.41
2022-09-24T08:16:01.527Z,10.55
2022-09-24T08:18:32.031Z,10.59
2022-09-24T08:21:04.662Z,10.52
2022-09-24T08:23:36.637Z,10.50
2022-09-24T08:26:06.160Z,10.51
2022-09-24T08:28:37.025Z,10.65
2022-09-24T08:31:09.211Z,10.63
2022-09-24T08:33:39.835Z,10.62
2022-09-24T08:36:12.065Z,10.69
2022-09-24T08:38:41.444Z,10.74
2022-09-24T08:41:29.869Z,10.81
2022-09-24T08:44:05.901Z,10.77
2022-09-24T08:46:56.119Z,10.83
2022-09-24T08:49:29.301Z,10.93
2022-09-24T08:52:05.275Z,10.86
2022-09-24T08:54:37.870Z,10.93
2022-09-24T08:57:15.317Z,11.02
2022-09-24T08:59:52.185Z,11.17
2022-09-24T09:02:40.045Z,11.23
2022-09-24T09:05:24.667Z,11.37
2022-09-24T09:08:02.893Z,11.38
2022-09-24T09:10:36.426Z,11.31
2022-09-24T09:13:15.151Z,11.26
2022-09-24T09:15:50.454Z,11.43
2022-09-24T09:18:24.558Z,11.83
2022-09-24T09:20:53.678Z,11.93
2022-09-24T09:23:23.867Z,12.24
2022-09-24T09:25:57.497Z,12.29
2022-09-24T09:28:28.167Z,12.59
2022-09-24T09:31:12.586Z,12.74
2022-09-24T09:33:57.159Z,12.94
2022-09-24T09:36:53.602Z,13.16
2022-09-24T09:39:37.327Z,13.44
2022-09-24T09:42:19.244Z,14.19
2022-09-24T09:44:48.238Z,14.52
2022-09-24T09:47:26.717Z,14.60
2022-09-24T09:49:59.758Z,14.84
2022-09-24T09:52:31.672Z,15.00
2022-09-24T09:55:00.458Z,14.91
2022-09-24T09:57:29.505Z,14.53
2022-09-24T10:00:02.035Z,14.17
2022-09-24T10:02:45.424Z,13.89
2022-09-24T10:05:26.982Z,13.64
2022-09-24T10:08:22.486Z,13.48
2022-09-24T10:11:01.841Z,13.38
2022-09-24T10:13:37.581Z,13.39
2022-09-24T10:16:17.644Z,13.52
2022-09-24T10:19:02.108Z,13.28
2022-09-24T10:21:47.268Z,13.23
2022-09-24T10:24:26.349Z,13.34
2022-09-24T10:27:01.029Z,13.45
2022-09-24T10:29:53.248Z,13.52
2022-09-24T10:32:31.315Z,13.54
2022-09-24T10:35:06.311Z,13.43
2022-09-24T10:37:36.716Z,13.50
2022-09-24T10:40:14.316Z,13.40
2022-09-24T10:42:57.925Z,13.41
2022-09-24T10:45:51.871Z,13.66
2022-09-24T10:48:28.555Z,13.85
2022-09-24T10:51:14.703Z,14.15
2022-09-24T10:54:04.889Z,14.55
2022-09-24T10:56:43.627Z,14.36
2022-09-24T10:59:47.539Z,13.78
2022-09-24T11:03:02.481Z,14.26
2022-09-24T11:05:39.503Z,14.60
2022-09-24T11:08:19.081Z,14.85
2022-09-24T11:11:09.888Z,15.00
2022-09-24T11:13:51.582Z,15.27
2022-09-24T11:16:46.117Z,15.29
2022-09-24T11:19:37.513Z,15.61
2022-09-24T11:22:14.298Z,15.61
2022-09-24T11:25:08.907Z,15.75
2022-09-24T11:28:10.507Z,15.82
2022-09-24T11:31:00.316Z,15.70
2022-09-24T11:34:02.664Z,16.10
2022-09-24T11:36:52.052Z,15.98
2022-09-24T11:39:42.564Z,15.83
2022-09-24T11:42:26.191Z,15.94
2022-09-24T11:45:19.024Z,15.55
2022-09-24T11:48:07.287Z,15.88
2022-09-24T11:50:48.151Z,14.97
2022-09-24T11:53:33.324Z,14.47
2022-09-24T11:56:15.068Z,14.81
2022-09-24T11:58:52.193Z,15.85
2022-09-24T12:01:30.187Z,16.32
2022-09-24T12:04:06.766Z,15.68
2022-09-24T12:06:43.486Z,14.74
2022-09-24T12:09:28.092Z,14.54
2022-09-24T12:12:47.517Z,14.22
2022-09-24T12:15:30.798Z,14.08
2022-09-24T12:18:04.595Z,14.76
2022-09-24T12:20:44.244Z,15.62
2022-09-24T12:23:18.389Z,16.09
2022-09-24T12:25:51.551Z,16.22
2022-09-24T12:28:41.217Z,15.84
2022-09-24T12:31:34.820Z,14.96
2022-09-24T12:34:10.090Z,14.52
2022-09-24T12:36:57.512Z,15.28
2022-09-24T12:39:30.077Z,15.90
2022-09-24T12:42:03.967Z,16.23
2022-09-24T12:44:42.553Z,16.51
2022-09-24T12:47:21.695Z,16.33
2022-09-24T12:50:01.059Z,16.56
2022-09-24T12:52:43.698Z,16.17
2022-09-24T12:55:22.351Z,16.00
2022-09-24T12:58:04.670Z,15.64
2022-09-24T13:00:41.801Z,15.03
2022-09-24T13:03:33.788Z,15.20
2022-09-24T13:06:34.954Z,15.59
2022-09-24T13:09:04.490Z,16.02
2022-09-24T13:11:37.870Z,15.58
2022-09-24T13:14:23.134Z,15.11
2022-09-24T13:16:58.378Z,15.28
2022-09-24T13:19:42.690Z,16.09
2022-09-24T13:22:24.253Z,16.40
2022-09-24T13:24:54.963Z,16.59
2022-09-24T13:27:38.919Z,16.82
2022-09-24T13:30:20.391Z,17.04
2022-09-24T13:32:58.982Z,17.29
2022-09-24T13:35:37.194Z,16.61
2022-09-24T13:38:15.284Z,15.93
2022-09-24T13:40:50.629Z,15.81
2022-09-24T13:43:40.953Z,15.47
2022-09-24T13:46:24.259Z,16.17
2022-09-24T13:49:16.426Z,16.74
2022-09-24T13:51:59.482Z,16.83
2022-09-24T13:54:36.900Z,16.85
2022-09-24T13:57:14.172Z,16.58
2022-09-24T13:59:45.159Z,16.03
2022-09-24T14:02:28.357Z,16.73
2022-09-24T14:05:02.335Z,17.34
2022-09-24T14:07:33.301Z,17.84
2022-09-24T14:10:15.437Z,19.00
2022-09-24T14:13:03.888Z,19.61
2022-09-24T14:15:33.580Z,19.90
2022-09-24T14:18:06.134Z,17.62
2022-09-24T14:20:52.150Z,16.75
2022-09-24T14:23:27.329Z,16.21
2022-09-24T14:25:59.663Z,15.78
2022-09-24T14:28:32.909Z,17.86
2022-09-24T14:31:03.669Z,20.53
2022-09-24T14:33:34.326Z,20.80
2022-09-24T14:36:05.552Z,21.17
2022-09-24T14:38:43.763Z,20.88
2022-09-24T14:41:19.891Z,20.27
2022-09-24T14:43:55.229Z,19.36
2022-09-24T14:46:46.521Z,21.04
2022-09-24T14:49:22.770Z,20.45
2022-09-24T14:51:58.763Z,18.58
2022-09-24T14:54:45.331Z,17.36
2022-09-24T14:57:26.347Z,16.55
2022-09-24T14:59:56.765Z,16.06
2022-09-24T15:02:31.390Z,15.63
2022-09-24T15:05:12.312Z,15.97
2022-09-24T15:07:47.968Z,18.42
2022-09-24T15:10:42.276Z,16.93
2022-09-24T15:13:16.500Z,16.49
2022-09-24T15:16:03.433Z,16.66
2022-09-24T15:18:35.763Z,16.23
2022-09-24T15:21:09.282Z,15.80
2022-09-24T15:23:39.243Z,15.89
2022-09-24T15:26:10.871Z,15.74
2022-09-24T15:28:40.723Z,15.49
2022-09-24T15:31:10.709Z,15.36
2022-09-24T15:34:03.012Z,15.31
2022-09-24T15:36:31.779Z,15.16
2022-09-24T15:39:04.060Z,15.08
2022-09-24T15:41:34.944Z,15.22
2022-09-24T15:44:04.608Z,15.19
2022-09-24T15:46:38.583Z,15.16
2022-09-24T15:49:09.464Z,15.69
2022-09-24T15:51:42.034Z,18.75
2022-09-24T15:54:11.525Z,17.49
2022-09-24T15:56:44.383Z,16.39
2022-09-24T15:59:15.716Z,15.75
2022-09-24T16:01:45.779Z,15.59
2022-09-24T16:04:14.597Z,15.29
2022-09-24T16:06:44.264Z,15.13
2022-09-24T16:09:12.704Z,15.10
2022-09-24T16:11:43.127Z,14.97
2022-09-24T16:14:16.344Z,15.03
2022-09-24T16:16:55.266Z,15.07
2022-09-24T16:19:25.995Z,14.96
2022-09-24T16:21:54.490Z,14.86
2022-09-24T16:24:23.098Z,14.97
2022-09-24T16:26:52.942Z,18.23
2022-09-24T16:29:21.598Z,19.30
2022-09-24T16:31:50.328Z,17.79
2022-09-24T16:34:18.871Z,17.08
2022-09-24T16:36:48.386Z,16.22
2022-09-24T16:39:17.073Z,15.91
2022-09-24T16:41:45.916Z,15.65
2022-09-24T16:44:16.546Z,15.27
2022-09-24T16:46:46.023Z,15.13
2022-09-24T16:49:14.378Z,14.94
2022-09-24T16:51:43.053Z,14.94
2022-09-24T16:54:12.915Z,14.98
2022-09-24T16:56:41.962Z,14.99
2022-09-24T16:59:11.818Z,14.70
2022-09-24T17:01:42.898Z,14.63
2022-09-24T17:04:11.857Z,14.70
2022-09-24T17:06:40.532Z,14.72
2022-09-24T17:09:27.393Z,14.70
2022-09-24T17:11:56.944Z,14.73
2022-09-24T17:14:26.131Z,14.72
2022-09-24T17:16:56.024Z,14.59
2022-09-24T17:19:24.404Z,14.53
2022-09-24T17:21:55.676Z,14.51
2022-09-24T17:24:24.375Z,14.42
2022-09-24T17:26:54.316Z,14.37
2022-09-24T17:29:28.879Z,14.30
2022-09-24T17:32:02.655Z,14.29
2022-09-24T17:34:33.378Z,14.30
2022-09-24T17:37:02.357Z,14.29
2022-09-24T17:39:32.644Z,14.20
2022-09-24T17:42:03.049Z,14.21
2022-09-24T17:44:31.649Z,14.19
2022-09-24T18:13:06.860Z,13.90
2022-09-24T18:21:15.972Z,13.84
2022-09-24T18:31:39.110Z,13.84
2022-09-24T18:34:09.991Z,13.86
2022-09-24T18:36:40.470Z,13.84
2022-09-24T18:39:12.785Z,13.86
2022-09-24T18:41:42.877Z,13.83
2022-09-24T18:44:11.500Z,13.77
2022-09-24T18:46:43.051Z,13.74
2022-09-24T18:49:13.539Z,13.72
2022-09-24T18:51:43.099Z,13.73
2022-09-24T18:54:14.639Z,13.77
2022-09-24T18:56:43.808Z,13.80
2022-09-24T18:59:16.149Z,13.73
2022-09-24T19:05:03.889Z,13.68
2022-09-24T19:07:35.319Z,13.63
2022-09-24T19:10:26.389Z,13.60
2022-09-24T19:12:57.819Z,13.56
2022-09-24T19:15:31.189Z,13.51
2022-09-24T19:18:00.486Z,13.48
2022-09-24T19:20:32.441Z,13.45
2022-09-24T19:23:08.440Z,13.47
2022-09-24T19:25:40.912Z,13.47
2022-09-24T19:28:11.970Z,13.45
2022-09-24T19:30:41.773Z,13.46
2022-09-24T19:33:18.303Z,13.34
2022-09-24T19:35:58.183Z,13.32
2022-09-24T19:38:30.393Z,13.17
2022-09-24T19:41:03.850Z,13.09
2022-09-24T19:43:35.774Z,13.03
2022-09-24T19:46:18.671Z,12.91
2022-09-24T19:48:51.008Z,12.76
2022-09-24T19:51:29.499Z,12.71
2022-09-24T19:54:07.073Z,12.71
2022-09-24T19:56:36.681Z,12.78
2022-09-24T19:59:06.169Z,12.82
2022-09-24T20:01:35.352Z,12.82
2022-09-24T20:04:06.701Z,12.83
2022-09-24T20:06:38.896Z,12.79
2022-09-24T20:09:08.569Z,12.71
2022-09-24T20:11:37.616Z,12.69
2022-09-24T20:14:09.296Z,12.70
2022-09-24T20:16:38.282Z,12.72
2022-09-24T20:19:06.564Z,12.71
2022-09-24T20:21:36.973Z,12.83
2022-09-24T20:24:07.247Z,12.79
2022-09-24T20:26:53.477Z,12.74
2022-09-24T20:29:23.254Z,12.65
2022-09-24T20:31:53.437Z,12.65
2022-09-24T20:34:25.041Z,12.65
2022-09-24T20:36:58.076Z,12.56
2022-09-24T20:39:27.192Z,12.49
2022-09-24T20:41:56.182Z,12.43
2022-09-24T20:44:26.433Z,12.35
2022-09-24T20:46:54.917Z,12.29
2022-09-24T20:49:24.510Z,12.26
2022-09-24T20:51:57.358Z,12.21
2022-09-24T20:54:27.092Z,12.13
2022-09-24T20:56:56.092Z,12.09
2022-09-24T20:59:25.241Z,12.04
2022-09-24T21:01:53.856Z,12.00
2022-09-24T21:04:22.733Z,11.97
2022-09-24T21:06:51.711Z,11.93
2022-09-24T21:09:22.083Z,11.87
2022-09-24T21:11:54.553Z,11.80
2022-09-24T21:14:23.504Z,11.73
2022-09-24T21:16:55.251Z,11.70
2022-09-24T21:19:25.167Z,11.72
2022-09-24T21:21:54.269Z,11.70
2022-09-24T21:24:30.562Z,11.66
2022-09-24T21:27:00.443Z,11.65
2022-09-24T21:29:29.018Z,11.61
2022-09-24T21:31:57.423Z,11.64
2022-09-24T21:34:26.497Z,11.57
2022-09-24T21:36:55.339Z,11.52
2022-09-24T21:39:27.206Z,11.49
2022-09-24T21:41:59.733Z,11.44
2022-09-24T21:44:34.346Z,11.38
2022-09-24T21:47:08.828Z,11.33
2022-09-24T21:49:37.329Z,11.33
2022-09-24T21:52:07.741Z,11.31
2022-09-24T21:54:39.828Z,11.26
2022-09-24T21:57:08.478Z,11.28
2022-09-24T21:59:54.021Z,11.24
2022-09-24T22:02:22.423Z,11.15
2022-09-24T22:04:51.299Z,11.10
2022-09-24T22:07:20.128Z,11.08
2022-09-24T22:09:50.198Z,10.99
2022-09-24T22:12:19.777Z,10.96
2022-09-24T22:14:48.034Z,10.97
2022-09-24T22:17:16.778Z,10.91
2022-09-24T22:19:45.528Z,10.81
2022-09-24T22:22:14.048Z,10.74
2022-09-24T22:24:42.318Z,10.69
2022-09-24T22:27:12.328Z,10.70
2022-09-24T22:29:41.383Z,10.66
2022-09-24T22:32:15.269Z,10.64
2022-09-24T22:34:57.409Z,10.55
2022-09-24T22:37:26.247Z,10.58
2022-09-24T22:39:54.593Z,10.51
2022-09-24T22:42:24.626Z,10.47
2022-09-24T22:44:55.956Z,10.45
2022-09-24T22:47:24.345Z,10.41
2022-09-24T22:49:53.365Z,10.38
2022-09-24T22:52:21.897Z,10.35
2022-09-24T22:55:05.424Z,10.33
2022-09-24T22:57:36.040Z,10.29
2022-09-24T23:00:07.137Z,10.29
2022-09-24T23:02:36.067Z,10.28
2022-09-24T23:05:05.360Z,10.29
2022-09-24T23:07:35.485Z,10.24
2022-09-24T23:10:03.923Z,10.22
2022-09-24T23:12:33.398Z,10.15
2022-09-24T23:15:03.395Z,10.14
2022-09-24T23:17:32.112Z,10.16
2022-09-24T23:20:00.841Z,10.14
2022-09-24T23:22:31.309Z,10.12
2022-09-24T23:24:59.748Z,10.08
2022-09-24T23:27:29.618Z,10.06
2022-09-24T23:29:59.397Z,10.05
2022-09-24T23:32:29.757Z,10.04
2022-09-24T23:34:58.632Z,9.99
2022-09-24T23:37:27.085Z,10.01
2022-09-24T23:39:55.696Z,9.99
2022-09-24T23:42:24.704Z,9.98
2022-09-24T23:44:53.718Z,9.95
2022-09-24T23:47:23.420Z,9.96
2022-09-24T23:49:53.696Z,9.88
2022-09-24T23:52:22.482Z,9.81
2022-09-24T23:54:50.916Z,9.76
2022-09-24T23:57:19.773Z,9.71
2022-09-24T23:59:48.299Z,9.64
